createdAt,value
2023-04-14T00:00:45.477Z,23.23
2023-04-14T00:03:12.144Z,24.55
2023-04-14T00:05:36.870Z,23.88
2023-04-14T00:08:02.141Z,22.02
2023-04-14T00:10:27.005Z,21.60
2023-04-14T00:12:52.136Z,24.65
2023-04-14T00:15:16.794Z,25.00
2023-04-14T00:17:41.366Z,30.52
2023-04-14T00:20:08.567Z,26.00
2023-04-14T00:22:33.109Z,31.98
2023-04-14T00:25:01.327Z,27.52
2023-04-14T00:27:26.160Z,27.25
2023-04-14T00:29:50.615Z,26.17
2023-04-14T00:32:17.039Z,33.35
2023-04-14T00:34:41.674Z,26.88
2023-04-14T00:37:07.675Z,34.22
2023-04-14T00:39:32.300Z,29.00
2023-04-14T00:41:57.370Z,34.22
2023-04-14T00:44:23.182Z,31.25
2023-04-14T00:46:48.024Z,29.67
2023-04-14T00:49:12.624Z,39.03
2023-04-14T00:51:38.068Z,28.88
2023-04-14T00:54:08.643Z,28.60
2023-04-14T00:56:33.360Z,29.55
2023-04-14T00:58:57.972Z,31.63
2023-04-14T01:01:22.783Z,31.15
2023-04-14T01:03:48.084Z,31.83
2023-04-14T01:06:12.617Z,31.42
2023-04-14T01:08:37.327Z,37.75
2023-04-14T01:11:29.377Z,33.08
2023-04-14T01:14:03.693Z,32.35
2023-04-14T01:16:33.171Z,36.78
2023-04-14T01:19:08.400Z,32.00
2023-04-14T01:21:39.579Z,30.80
2023-04-14T01:24:27.415Z,34.35
2023-04-14T01:27:04.838Z,32.83
2023-04-14T01:30:02.559Z,30.25
2023-04-14T01:32:36.236Z,32.95
2023-04-14T01:35:08.506Z,29.70
2023-04-14T01:37:36.876Z,34.80
2023-04-14T01:40:08.004Z,30.58
2023-04-14T01:42:35.366Z,32.13
2023-04-14T01:45:05.124Z,38.13
2023-04-14T01:47:32.674Z,29.65
2023-04-14T01:49:57.973Z,34.05
2023-04-14T01:52:23.539Z,31.02
2023-04-14T01:54:52.021Z,32.10
2023-04-14T01:57:19.381Z,30.73
2023-04-14T01:59:47.202Z,33.92
2023-04-14T02:02:14.158Z,35.42
2023-04-14T02:04:42.145Z,32.00
2023-04-14T02:07:07.942Z,32.67
2023-04-14T02:09:35.022Z,28.15
2023-04-14T02:12:00.933Z,32.97
2023-04-14T02:14:26.051Z,31.67
2023-04-14T02:16:52.845Z,28.65
2023-04-14T02:19:20.059Z,29.17
2023-04-14T02:21:47.869Z,28.83
2023-04-14T02:24:12.645Z,33.55
2023-04-14T02:26:45.702Z,32.70
2023-04-14T02:29:13.771Z,32.67
2023-04-14T02:31:44.852Z,31.73
2023-04-14T02:34:14.907Z,34.30
2023-04-14T02:36:43.880Z,32.05
2023-04-14T02:39:17.893Z,35.85
2023-04-14T02:41:44.738Z,30.90
2023-04-14T02:44:15.854Z,32.15
2023-04-14T02:46:43.793Z,32.65
2023-04-14T02:49:13.062Z,35.13
2023-04-14T02:51:40.661Z,33.88
2023-04-14T02:54:06.010Z,32.20
2023-04-14T02:56:41.346Z,29.52
2023-04-14T02:59:06.792Z,31.50
2023-04-14T03:01:34.349Z,33.40
2023-04-14T03:04:00.800Z,29.35
2023-04-14T03:06:28.966Z,35.72
2023-04-14T03:08:55.249Z,32.53
2023-04-14T03:11:22.557Z,29.83
2023-04-14T03:13:50.174Z,28.88
2023-04-14T03:16:15.419Z,37.35
2023-04-14T03:18:42.250Z,33.28
2023-04-14T03:21:07.637Z,36.80
2023-04-14T03:23:33.415Z,33.08
2023-04-14T03:26:04.129Z,39.10
2023-04-14T03:28:32.665Z,31.00
2023-04-14T03:31:05.241Z,34.03
2023-04-14T03:33:42.416Z,39.97
2023-04-14T03:36:11.898Z,36.33
2023-04-14T03:38:38.381Z,36.78
2023-04-14T03:41:05.806Z,35.55
2023-04-14T03:43:33.760Z,30.45
2023-04-14T03:46:06.551Z,30.67
2023-04-14T03:48:35.564Z,37.13
2023-04-14T03:51:02.680Z,31.27
2023-04-14T03:53:28.951Z,30.88
2023-04-14T03:55:58.701Z,26.65
2023-04-14T03:58:24.374Z,32.65
2023-04-14T04:00:50.225Z,30.67
2023-04-14T04:03:17.124Z,31.23
2023-04-14T04:05:42.737Z,30.48
2023-04-14T04:08:08.358Z,30.85
2023-04-14T04:10:35.133Z,28.67
2023-04-14T04:13:02.259Z,25.85
2023-04-14T04:15:29.281Z,31.40
2023-04-14T04:17:54.202Z,27.58
2023-04-14T04:20:21.250Z,28.05
2023-04-14T04:22:47.906Z,29.40
2023-04-14T04:25:14.345Z,27.40
2023-04-14T04:27:45.250Z,24.35
2023-04-14T04:30:14.424Z,25.58
2023-04-14T04:32:39.718Z,24.10
2023-04-14T04:35:07.460Z,21.75
2023-04-14T04:37:33.863Z,28.52
2023-04-14T04:39:59.653Z,20.48
2023-04-14T04:42:25.367Z,22.33
2023-04-14T04:44:52.723Z,22.00
2023-04-14T04:47:17.354Z,21.70
2023-04-14T04:49:42.264Z,22.98
2023-04-14T04:52:06.811Z,20.88
2023-04-14T04:54:33.475Z,22.08
2023-04-14T04:56:58.827Z,20.88
2023-04-14T04:59:23.385Z,22.75
2023-04-14T05:01:48.049Z,22.83
2023-04-14T05:04:13.025Z,23.40
2023-04-14T05:06:38.343Z,23.33
2023-04-14T05:09:03.059Z,21.27
2023-04-14T05:11:28.950Z,23.83
2023-04-14T05:13:53.434Z,25.80
2023-04-14T05:16:18.532Z,22.85
2023-04-14T05:18:44.113Z,22.85
2023-04-14T05:21:09.992Z,24.10
2023-04-14T05:23:35.092Z,23.50
2023-04-14T05:26:16.278Z,20.88
2023-04-14T05:28:46.004Z,24.40
2023-04-14T05:31:10.769Z,18.15
2023-04-14T05:33:36.476Z,20.58
2023-04-14T05:36:01.150Z,23.70
2023-04-14T05:38:25.955Z,22.48
2023-04-14T05:40:51.172Z,19.92
2023-04-14T05:43:16.311Z,21.10
2023-04-14T05:45:42.152Z,16.92
2023-04-14T05:48:07.067Z,20.98
2023-04-14T05:50:33.518Z,21.23
2023-04-14T05:52:58.113Z,20.70
2023-04-14T05:55:22.787Z,21.77
2023-04-14T05:57:47.788Z,29.77
2023-04-14T06:00:13.666Z,15.30
2023-04-14T06:02:39.845Z,19.48
2023-04-14T06:05:06.780Z,15.40
2023-04-14T06:07:31.393Z,12.90
2023-04-14T06:09:55.890Z,15.77
2023-04-14T06:12:20.835Z,17.38
2023-04-14T06:14:45.792Z,19.38
2023-04-14T06:17:10.392Z,13.27
2023-04-14T06:19:36.497Z,17.80
2023-04-14T06:22:01.011Z,21.58
2023-04-14T06:24:25.565Z,16.70
2023-04-14T06:26:50.072Z,15.20
2023-04-14T06:29:17.400Z,16.42
2023-04-14T06:31:42.031Z,17.83
2023-04-14T06:34:06.516Z,16.88
2023-04-14T06:36:33.016Z,14.85
2023-04-14T06:38:59.017Z,19.88
2023-04-14T06:41:24.297Z,18.00
2023-04-14T06:43:49.077Z,16.40
2023-04-14T06:46:13.810Z,14.77
2023-04-14T06:48:38.440Z,15.60
2023-04-14T06:51:03.825Z,20.30
2023-04-14T06:53:29.668Z,20.27
2023-04-14T06:55:59.574Z,19.80
2023-04-14T06:58:24.399Z,19.00
2023-04-14T07:00:48.919Z,24.70
2023-04-14T07:03:13.592Z,19.65
2023-04-14T07:05:38.196Z,22.00
2023-04-14T07:08:02.935Z,19.52
2023-04-14T07:10:28.952Z,14.52
2023-04-14T07:12:53.630Z,19.10
2023-04-14T07:15:18.557Z,15.38
2023-04-14T07:17:43.421Z,15.15
2023-04-14T07:20:10.301Z,13.50
2023-04-14T07:22:34.962Z,14.85
2023-04-14T07:24:59.593Z,13.68
2023-04-14T07:27:28.562Z,12.05
2023-04-14T07:29:53.667Z,10.77
2023-04-14T07:32:18.446Z,11.77
2023-04-14T07:34:44.226Z,10.93
2023-04-14T07:37:09.012Z,10.95
2023-04-14T07:39:33.607Z,12.93
2023-04-14T07:41:58.829Z,15.48
2023-04-14T07:44:27.653Z,13.07
2023-04-14T07:46:52.297Z,12.10
2023-04-14T07:49:17.139Z,10.25
2023-04-14T07:51:41.732Z,13.18
2023-04-14T07:54:07.578Z,14.35
2023-04-14T07:56:32.472Z,12.63
2023-04-14T07:58:56.940Z,14.18
2023-04-14T08:01:23.045Z,9.30
2023-04-14T08:03:47.814Z,10.98
2023-04-14T08:06:12.822Z,11.43
2023-04-14T08:08:41.014Z,10.00
2023-04-14T08:11:05.924Z,12.85
2023-04-14T08:13:30.507Z,11.32
2023-04-14T08:15:55.192Z,11.50
2023-04-14T08:18:21.789Z,10.93
2023-04-14T08:20:46.282Z,10.70
2023-04-14T08:23:11.719Z,10.85
2023-04-14T08:25:38.897Z,10.40
2023-04-14T08:28:03.492Z,11.13
2023-04-14T08:30:28.255Z,11.65
2023-04-14T08:32:53.308Z,9.60
2023-04-14T08:35:38.791Z,8.32
2023-04-14T08:38:06.216Z,10.45
2023-04-14T08:40:38.292Z,9.13
2023-04-14T08:43:02.974Z,11.68
2023-04-14T08:45:28.146Z,12.13
2023-04-14T08:47:56.581Z,10.68
2023-04-14T08:50:27.106Z,12.32
2023-04-14T08:52:54.392Z,10.23
2023-04-14T08:55:20.541Z,9.50
2023-04-14T08:57:46.673Z,8.32
2023-04-14T09:00:12.677Z,11.18
2023-04-14T09:02:41.693Z,12.60
2023-04-14T09:05:07.273Z,8.20
2023-04-14T09:07:33.429Z,8.90
2023-04-14T09:09:59.955Z,12.90
2023-04-14T09:12:25.769Z,10.30
2023-04-14T09:14:51.655Z,10.63
2023-04-14T09:17:16.437Z,10.20
2023-04-14T09:20:34.682Z,10.27
2023-04-14T09:22:25.880Z,12.18
2023-04-14T09:24:52.374Z,9.15
2023-04-14T09:27:16.986Z,14.07
2023-04-14T09:29:42.819Z,12.15
2023-04-14T09:32:07.933Z,10.90
2023-04-14T09:34:32.550Z,11.70
2023-04-14T09:37:05.482Z,12.73
2023-04-14T09:39:30.181Z,8.98
2023-04-14T09:41:56.131Z,9.80
2023-04-14T09:44:21.193Z,11.23
2023-04-14T09:46:58.212Z,7.68
2023-04-14T09:49:22.817Z,8.45
2023-04-14T09:51:50.687Z,7.90
2023-04-14T09:54:24.572Z,9.60
2023-04-14T09:56:49.098Z,10.52
2023-04-14T09:59:14.997Z,9.32
2023-04-14T10:01:39.759Z,7.72
2023-04-14T10:04:05.091Z,10.15
2023-04-14T10:06:31.336Z,11.48
2023-04-14T10:08:57.371Z,8.50
2023-04-14T10:11:24.928Z,13.07
2023-04-14T10:13:51.022Z,12.38
2023-04-14T10:16:17.795Z,10.30
2023-04-14T10:18:42.283Z,10.73
2023-04-14T10:21:07.902Z,8.68
2023-04-14T10:23:33.418Z,13.90
2023-04-14T10:25:59.401Z,6.53
2023-04-14T10:28:24.567Z,10.98
2023-04-14T10:30:50.304Z,9.27
2023-04-14T10:33:16.497Z,5.07
2023-04-14T10:35:46.514Z,7.00
2023-04-14T10:40:47.025Z,14.48
2023-04-14T10:43:13.919Z,6.13
2023-04-14T10:45:54.950Z,5.65
2023-04-14T10:48:21.945Z,6.13
2023-04-14T10:50:49.036Z,7.70
2023-04-14T10:53:13.504Z,9.23
2023-04-14T10:55:52.165Z,6.88
2023-04-14T10:58:21.330Z,7.28
2023-04-14T11:00:45.914Z,6.35
2023-04-14T11:03:12.098Z,5.43
2023-04-14T11:05:44.114Z,9.73
2023-04-14T11:08:14.975Z,8.70
2023-04-14T11:10:39.743Z,5.38
2023-04-14T11:13:06.917Z,5.88
2023-04-14T11:15:52.108Z,7.35
2023-04-14T11:18:18.548Z,6.68
2023-04-14T11:20:45.134Z,5.43
2023-04-14T11:23:10.593Z,8.35
2023-04-14T11:25:35.464Z,7.13
2023-04-14T11:28:03.571Z,8.13
2023-04-14T11:30:28.667Z,4.78
2023-04-14T11:32:54.850Z,3.95
2023-04-14T11:35:20.288Z,4.50
2023-04-14T11:37:47.317Z,5.18
2023-04-14T11:40:13.415Z,4.63
2023-04-14T11:42:38.208Z,8.70
2023-04-14T11:45:04.263Z,10.07
2023-04-14T11:47:29.076Z,7.20
2023-04-14T11:49:53.551Z,5.38
2023-04-14T11:52:18.610Z,6.72
2023-04-14T11:54:45.751Z,12.10
2023-04-14T11:57:12.486Z,8.20
2023-04-14T11:59:43.615Z,8.38
2023-04-14T12:02:15.522Z,8.85
2023-04-14T12:04:41.204Z,6.13
2023-04-14T12:07:12.556Z,8.57
2023-04-14T12:09:43.075Z,7.70
2023-04-14T12:12:12.095Z,7.00
2023-04-14T12:14:37.349Z,7.87
2023-04-14T12:17:02.025Z,7.60
2023-04-14T12:19:26.568Z,8.23
2023-04-14T12:21:54.340Z,8.13
2023-04-14T12:24:18.855Z,8.18
2023-04-14T12:26:44.677Z,8.02
2023-04-14T12:29:13.646Z,6.93
2023-04-14T12:31:43.918Z,5.20
2023-04-14T12:34:09.011Z,8.90
2023-04-14T12:36:48.605Z,7.10
2023-04-14T12:39:14.507Z,6.55
2023-04-14T12:41:42.165Z,6.57
2023-04-14T12:44:16.661Z,12.25
2023-04-14T12:46:48.902Z,7.53
2023-04-14T12:49:36.231Z,4.55
2023-04-14T12:52:00.804Z,7.78
2023-04-14T12:54:25.859Z,9.30
2023-04-14T12:56:50.614Z,6.38
2023-04-14T12:59:16.512Z,8.30
2023-04-14T13:01:41.284Z,8.15
2023-04-14T13:04:07.828Z,7.07
2023-04-14T13:06:32.517Z,5.43
2023-04-14T13:08:57.642Z,5.88
2023-04-14T13:11:23.648Z,7.90
2023-04-14T13:13:48.664Z,7.03
2023-04-14T13:16:17.691Z,6.47
2023-04-14T13:18:43.300Z,7.90
2023-04-14T13:21:07.975Z,5.72
2023-04-14T13:23:32.811Z,4.85
2023-04-14T13:25:57.749Z,7.95
2023-04-14T13:28:22.280Z,9.45
2023-04-14T13:30:47.300Z,8.65
2023-04-14T13:33:13.319Z,11.45
2023-04-14T13:35:37.900Z,7.30
2023-04-14T13:38:02.601Z,6.50
2023-04-14T13:40:27.265Z,9.27
2023-04-14T13:42:51.857Z,8.75
2023-04-14T13:45:16.508Z,8.13
2023-04-14T13:47:41.074Z,8.82
2023-04-14T13:50:10.300Z,6.53
2023-04-14T13:52:35.847Z,5.50
2023-04-14T13:55:00.792Z,6.03
2023-04-14T13:57:25.318Z,7.15
2023-04-14T13:59:49.871Z,6.72
2023-04-14T14:02:14.419Z,9.20
2023-04-14T14:04:39.577Z,7.45
2023-04-14T14:07:05.487Z,10.07
2023-04-14T14:09:30.079Z,7.50
2023-04-14T14:11:54.538Z,10.60
2023-04-14T14:14:19.194Z,10.93
2023-04-14T14:16:43.761Z,6.63
2023-04-14T14:19:11.008Z,9.07
2023-04-14T14:21:37.441Z,6.32
2023-04-14T14:24:04.015Z,5.95
2023-04-14T14:26:28.692Z,7.10
2023-04-14T14:28:53.180Z,10.02
2023-04-14T14:31:17.984Z,7.45
2023-04-14T14:33:42.412Z,7.85
2023-04-14T14:36:07.460Z,9.20
2023-04-14T14:38:31.856Z,8.45
2023-04-14T14:40:57.786Z,7.90
2023-04-14T14:43:22.200Z,10.95
2023-04-14T14:45:46.764Z,7.82
2023-04-14T14:48:11.842Z,10.18
2023-04-14T14:50:36.624Z,11.25
2023-04-14T14:53:01.111Z,9.05
2023-04-14T14:55:27.339Z,9.20
2023-04-14T14:57:53.302Z,11.77
2023-04-14T15:00:20.874Z,12.25
2023-04-14T15:02:45.599Z,11.30
2023-04-14T15:05:11.451Z,18.92
2023-04-14T15:07:36.339Z,17.63
2023-04-14T15:10:01.709Z,22.48
2023-04-14T15:12:27.069Z,18.73
2023-04-14T15:14:53.056Z,17.52
2023-04-14T15:17:18.502Z,17.75
2023-04-14T15:19:43.113Z,23.45
2023-04-14T15:22:07.652Z,18.20
2023-04-14T15:24:32.195Z,19.85
2023-04-14T15:26:57.672Z,16.05
2023-04-14T15:29:25.059Z,23.80
2023-04-14T15:31:51.166Z,25.52
2023-04-14T15:34:15.889Z,17.08
2023-04-14T15:36:40.372Z,16.77
2023-04-14T15:39:05.030Z,22.33
2023-04-14T15:41:29.435Z,15.48
2023-04-14T15:43:54.113Z,18.85
2023-04-14T15:46:18.999Z,21.73
2023-04-14T15:48:44.869Z,24.90
2023-04-14T15:51:09.922Z,20.60
2023-04-14T15:53:34.565Z,16.20
2023-04-14T15:55:59.633Z,19.60
2023-04-14T15:58:24.338Z,22.05
2023-04-14T16:00:48.910Z,26.90
2023-04-14T16:03:13.813Z,19.90
2023-04-14T16:05:39.639Z,21.17
2023-04-14T16:08:04.316Z,19.85
2023-04-14T16:10:29.398Z,22.25
2023-04-14T16:12:53.943Z,22.33
2023-04-14T16:15:18.421Z,21.73
2023-04-14T16:17:43.773Z,23.25
2023-04-14T16:20:08.794Z,16.73
2023-04-14T16:22:34.727Z,20.88
2023-04-14T16:24:59.173Z,18.63
2023-04-14T16:27:23.724Z,21.05
2023-04-14T16:29:48.173Z,20.05
2023-04-14T16:32:13.040Z,27.13
2023-04-14T16:34:40.090Z,23.50
2023-04-14T16:37:05.688Z,15.88
2023-04-14T16:39:31.709Z,19.50
2023-04-14T16:41:56.714Z,62.80
2023-04-14T16:44:21.358Z,34.63
2023-04-14T16:46:46.868Z,17.88
2023-04-14T16:49:11.352Z,33.67
2023-04-14T16:51:36.047Z,17.17
2023-04-14T16:54:01.040Z,31.38
2023-04-14T16:56:27.477Z,92.55
2023-04-14T16:58:51.909Z,34.95
2023-04-14T17:01:16.383Z,8.18
2023-04-14T17:03:41.034Z,9.27
2023-04-14T17:06:06.106Z,9.40
2023-04-14T17:08:30.607Z,14.82
2023-04-14T17:10:55.203Z,12.20
2023-04-14T17:13:21.448Z,15.45
2023-04-14T17:15:49.480Z,12.98
2023-04-14T17:18:18.221Z,8.38
2023-04-14T17:20:42.933Z,13.55
2023-04-14T17:23:07.878Z,6.68
2023-04-14T17:25:33.940Z,4.53
2023-04-14T17:27:58.431Z,11.73
2023-04-14T17:30:24.646Z,7.72
2023-04-14T17:32:49.942Z,8.05
2023-04-14T17:35:14.821Z,6.40
2023-04-14T17:37:39.208Z,8.88
2023-04-14T17:40:05.043Z,6.60
2023-04-14T17:42:29.695Z,6.13
2023-04-14T17:44:54.287Z,4.78
2023-04-14T17:47:21.980Z,5.95
2023-04-14T17:49:46.660Z,7.55
2023-04-14T17:52:16.430Z,8.43
2023-04-14T17:54:41.057Z,11.77
2023-04-14T17:57:05.845Z,5.93
2023-04-14T17:59:30.333Z,7.53
2023-04-14T18:01:55.080Z,5.03
2023-04-14T18:04:21.413Z,7.25
2023-04-14T18:06:45.967Z,4.55
2023-04-14T18:09:11.277Z,5.15
2023-04-14T18:11:36.671Z,6.55
2023-04-14T18:14:01.258Z,5.20
2023-04-14T18:16:26.501Z,4.50
2023-04-14T18:18:51.008Z,6.30
2023-04-14T18:21:17.305Z,10.80
2023-04-14T18:23:41.977Z,8.05
2023-04-14T18:28:34.927Z,12.38
2023-04-14T18:31:00.509Z,4.53
2023-04-14T18:33:25.339Z,4.57
2023-04-14T18:35:52.037Z,10.07
2023-04-14T18:38:18.224Z,7.72
2023-04-14T18:40:42.797Z,7.03
2023-04-14T18:43:07.716Z,7.45
2023-04-14T18:45:32.223Z,6.70
2023-04-14T18:47:56.693Z,6.65
2023-04-14T18:50:23.246Z,3.85
2023-04-14T18:52:47.937Z,6.68
2023-04-14T18:55:13.856Z,7.00
2023-04-14T18:57:38.229Z,6.57
2023-04-14T19:00:02.730Z,6.47
2023-04-14T19:02:28.102Z,6.32
2023-04-14T19:04:52.814Z,7.63
2023-04-14T19:07:18.391Z,5.53
2023-04-14T19:09:42.962Z,5.63
2023-04-14T19:12:18.452Z,7.13
2023-04-14T19:14:50.255Z,6.47
2023-04-14T19:17:14.713Z,4.45
2023-04-14T19:19:39.167Z,5.47
2023-04-14T19:22:03.743Z,4.45
2023-04-14T19:24:28.239Z,6.05
2023-04-14T19:26:53.669Z,9.52
2023-04-14T19:29:19.591Z,5.13
2023-04-14T19:31:44.868Z,5.30
2023-04-14T19:34:09.407Z,8.38
2023-04-14T19:36:34.393Z,4.82
2023-04-14T19:38:59.019Z,7.13
2023-04-14T19:41:24.351Z,6.25
2023-04-14T19:43:48.904Z,4.75
2023-04-14T19:46:15.224Z,6.15
2023-04-14T19:48:40.535Z,4.10
2023-04-14T19:51:05.012Z,6.18
2023-04-14T19:53:30.530Z,6.55
2023-04-14T19:55:56.976Z,4.55
2023-04-14T19:58:21.985Z,7.43
2023-04-14T20:00:46.541Z,8.15
2023-04-14T20:03:12.916Z,9.00
2023-04-14T20:05:37.471Z,8.68
2023-04-14T20:08:02.408Z,5.13
2023-04-14T20:10:26.943Z,11.95
2023-04-14T20:12:51.851Z,4.68
2023-04-14T20:15:16.417Z,4.68
2023-04-14T20:17:41.025Z,2.92
2023-04-14T20:20:08.724Z,5.95
2023-04-14T20:22:34.409Z,3.95
2023-04-14T20:24:59.501Z,4.45
2023-04-14T20:27:24.043Z,6.07
2023-04-14T20:29:48.538Z,4.35
2023-04-14T20:32:13.082Z,5.78
2023-04-14T20:34:37.572Z,4.82
2023-04-14T20:37:06.800Z,4.90
2023-04-14T20:39:31.200Z,6.80
2023-04-14T20:41:55.707Z,3.05
2023-04-14T20:44:20.446Z,8.00
2023-04-14T20:46:45.040Z,8.50
2023-04-14T20:49:09.932Z,4.68
2023-04-14T20:51:34.627Z,6.47
2023-04-14T20:54:01.267Z,6.28
2023-04-14T20:56:28.493Z,8.55
2023-04-14T20:58:52.900Z,7.35
2023-04-14T21:01:17.378Z,3.90
2023-04-14T21:03:41.904Z,5.35
2023-04-14T21:06:07.802Z,2.97
2023-04-14T21:08:32.995Z,3.00
2023-04-14T21:11:15.216Z,6.75
2023-04-14T21:15:11.353Z,4.47
2023-04-14T21:16:27.581Z,6.63
2023-04-14T21:18:52.179Z,5.30
2023-04-14T21:21:16.835Z,5.45
2023-04-14T21:23:41.558Z,5.20
2023-04-14T21:26:08.214Z,5.65
2023-04-14T21:28:32.925Z,5.13
2023-04-14T21:31:01.460Z,5.45
2023-04-14T21:33:27.167Z,5.18
2023-04-14T21:35:51.741Z,8.18
2023-04-14T21:38:16.171Z,4.40
2023-04-14T21:40:40.611Z,5.47
2023-04-14T21:43:07.311Z,5.07
2023-04-14T21:45:31.931Z,5.32
2023-04-14T21:47:56.438Z,4.72
2023-04-14T21:50:21.600Z,4.38
2023-04-14T21:52:46.270Z,4.28
2023-04-14T21:55:11.207Z,5.43
2023-04-14T21:57:48.652Z,4.70
2023-04-14T22:00:17.889Z,6.85
2023-04-14T22:02:42.915Z,8.32
2023-04-14T22:05:08.910Z,6.65
2023-04-14T22:07:33.373Z,6.57
2023-04-14T22:09:57.801Z,4.30
2023-04-14T22:12:22.703Z,6.45
2023-04-14T22:14:47.725Z,6.20
2023-04-14T22:17:14.287Z,5.40
2023-04-14T22:19:38.767Z,7.60
2023-04-14T22:22:03.752Z,6.47
2023-04-14T22:24:28.749Z,5.57
2023-04-14T22:26:54.027Z,5.10
2023-04-14T22:29:18.813Z,10.18
2023-04-14T22:31:43.272Z,6.78
2023-04-14T22:34:09.246Z,7.40
2023-04-14T22:36:33.683Z,8.25
2023-04-14T22:38:58.157Z,7.25
2023-04-14T22:41:22.692Z,9.10
2023-04-14T22:43:47.456Z,7.22
2023-04-14T22:46:12.023Z,6.57
2023-04-14T22:48:36.676Z,6.20
2023-04-14T22:51:02.485Z,5.30
2023-04-14T22:53:27.061Z,6.45
2023-04-14T22:55:52.044Z,8.05
2023-04-14T22:58:18.517Z,9.75
2023-04-14T23:00:43.448Z,7.35
2023-04-14T23:03:08.191Z,6.70
2023-04-14T23:05:32.624Z,11.68
2023-04-14T23:07:58.567Z,10.18
2023-04-14T23:10:23.078Z,8.18
2023-04-14T23:12:47.563Z,8.45
2023-04-14T23:15:12.402Z,8.48
2023-04-14T23:17:37.036Z,9.60
2023-04-14T23:20:02.104Z,8.93
2023-04-14T23:22:27.794Z,10.45
2023-04-14T23:24:53.815Z,7.70
2023-04-14T23:27:18.399Z,7.22
2023-04-14T23:29:42.751Z,8.88
2023-04-14T23:32:09.053Z,8.73
2023-04-14T23:34:33.581Z,8.75
2023-04-14T23:36:58.169Z,7.18
2023-04-14T23:39:22.700Z,7.68
2023-04-14T23:41:48.809Z,14.25
2023-04-14T23:44:13.410Z,9.05
2023-04-14T23:46:38.068Z,6.78
2023-04-14T23:49:10.181Z,10.00
2023-04-14T23:51:47.921Z,6.30
2023-04-14T23:54:12.279Z,11.35
2023-04-14T23:56:37.033Z,10.05
2023-04-14T23:59:03.610Z,7.85
